createdAt,value
2022-09-01T00:01:08.873Z,21.67
2022-09-01T00:03:49.473Z,21.66
2022-09-01T00:06:33.295Z,21.70
2022-09-01T00:09:26.407Z,21.68
2022-09-01T00:12:15.551Z,21.52
2022-09-01T00:14:55.430Z,21.52
2022-09-01T00:17:42.458Z,21.52
2022-09-01T00:20:22.590Z,21.43
2022-09-01T00:23:09.429Z,21.40
2022-09-01T00:25:49.515Z,21.39
2022-09-01T00:28:36.409Z,21.40
2022-09-01T00:31:16.603Z,21.33
2022-09-01T00:34:03.502Z,21.21
2022-09-01T00:36:50.409Z,21.29
2022-09-01T00:39:37.402Z,21.27
2022-09-01T00:42:17.481Z,21.18
2022-09-01T00:45:04.414Z,21.15
2022-09-01T00:47:44.547Z,21.20
2022-09-01T00:50:32.390Z,21.12
2022-09-01T00:53:13.641Z,21.11
2022-09-01T00:56:01.421Z,21.01
2022-09-01T00:58:44.560Z,21.03
2022-09-01T01:01:31.444Z,21.12
2022-09-01T01:04:17.728Z,21.07
2022-09-01T01:07:09.385Z,21.00
2022-09-01T01:09:51.764Z,20.93
2022-09-01T01:12:39.396Z,20.99
2022-09-01T01:15:21.490Z,20.89
2022-09-01T01:18:08.461Z,20.93
2022-09-01T01:21:14.359Z,20.87
2022-09-01T01:24:29.001Z,20.84
2022-09-01T01:27:15.360Z,20.73
2022-09-01T01:29:57.632Z,20.71
2022-09-01T01:32:52.436Z,20.72
2022-09-01T01:35:40.375Z,20.71
2022-09-01T01:38:29.431Z,20.51
2022-09-01T01:41:11.912Z,20.64
2022-09-01T01:43:59.366Z,20.57
2022-09-01T01:46:53.223Z,20.60
2022-09-01T01:49:42.329Z,20.53
2022-09-01T01:52:30.273Z,20.62
2022-09-01T01:55:16.338Z,20.59
2022-09-01T01:57:58.377Z,20.61
2022-09-01T02:00:46.367Z,20.51
2022-09-01T02:03:39.346Z,20.52
2022-09-01T02:06:31.326Z,20.56
2022-09-01T02:09:19.514Z,20.55
2022-09-01T02:12:03.366Z,20.45
2022-09-01T02:14:50.307Z,20.44
2022-09-01T02:17:30.473Z,20.33
2022-09-01T02:20:17.307Z,20.33
2022-09-01T02:22:57.447Z,20.33
2022-09-01T02:26:14.465Z,20.15
2022-09-01T02:28:59.298Z,20.26
2022-09-01T02:31:43.105Z,20.21
2022-09-01T02:34:30.282Z,20.22
2022-09-01T02:37:17.276Z,20.20
2022-09-01T02:40:00.413Z,20.17
2022-09-01T02:42:48.349Z,20.15
2022-09-01T02:45:36.331Z,20.25
2022-09-01T02:48:18.633Z,20.13
2022-09-01T02:51:06.278Z,20.15
2022-09-01T02:53:52.297Z,20.19
2022-09-01T02:56:39.285Z,20.21
2022-09-01T02:59:21.925Z,20.20
2022-09-01T03:02:15.248Z,20.20
2022-09-01T03:04:57.591Z,20.19
2022-09-01T03:26:03.975Z,19.63
2022-09-01T03:28:52.030Z,19.73
2022-09-01T03:31:33.120Z,19.83
2022-09-01T03:34:19.986Z,19.75
2022-09-01T03:37:08.063Z,19.97
2022-09-01T03:39:54.933Z,19.97
2022-09-01T03:42:46.985Z,19.91
2022-09-01T03:45:36.004Z,19.86
2022-09-01T03:48:23.967Z,19.80
2022-09-01T03:51:04.771Z,19.85
2022-09-01T03:53:52.936Z,19.92
2022-09-01T03:56:34.337Z,19.99
2022-09-01T03:59:25.938Z,19.91
2022-09-01T04:02:06.423Z,19.98
2022-09-01T04:04:53.938Z,20.10
2022-09-01T04:07:34.321Z,20.22
2022-09-01T04:10:20.925Z,20.17
2022-09-01T04:13:09.933Z,20.31
2022-09-01T04:15:53.064Z,20.48
2022-09-01T04:18:39.989Z,20.67
2022-09-01T04:21:27.008Z,20.48
2022-09-01T04:24:22.066Z,20.86
2022-09-01T04:27:10.587Z,21.29
2022-09-01T04:29:57.039Z,21.27
2022-09-01T04:32:47.919Z,21.13
2022-09-01T04:35:38.903Z,21.43
2022-09-01T04:38:19.421Z,21.65
2022-09-01T04:41:05.910Z,21.28
2022-09-01T04:43:55.874Z,21.23
2022-09-01T04:46:45.938Z,21.17
2022-09-01T04:49:27.122Z,21.36
2022-09-01T04:52:13.878Z,21.64
2022-09-01T04:55:00.863Z,21.94
2022-09-01T04:57:42.367Z,22.16
2022-09-01T05:00:28.881Z,22.38
2022-09-01T05:03:10.973Z,22.33
2022-09-01T05:06:25.839Z,22.39
2022-09-01T05:09:12.892Z,22.58
2022-09-01T05:12:29.834Z,22.53
2022-09-01T05:15:16.834Z,22.74
2022-09-01T05:18:00.067Z,22.97
2022-09-01T05:20:48.844Z,23.21
2022-09-01T05:23:30.941Z,23.39
2022-09-01T05:26:21.178Z,23.75
2022-09-01T05:29:04.260Z,23.67
2022-09-01T05:31:50.910Z,24.04
2022-09-01T05:34:36.446Z,24.68
2022-09-01T05:37:23.798Z,24.96
2022-09-01T05:40:16.587Z,25.32
2022-09-01T05:42:58.802Z,25.68
2022-09-01T05:45:56.483Z,25.62
2022-09-01T05:48:46.775Z,25.83
2022-09-01T05:51:45.521Z,25.71
2022-09-01T05:54:29.252Z,25.61
2022-09-01T05:57:33.884Z,26.11
2022-09-01T06:00:24.803Z,25.71
2022-09-01T06:03:16.028Z,25.66
2022-09-01T06:06:08.810Z,26.12
2022-09-01T06:08:56.793Z,26.21
2022-09-01T06:11:37.328Z,26.88
2022-09-01T06:14:23.778Z,26.69
2022-09-01T06:17:04.325Z,27.65
2022-09-01T06:19:51.804Z,27.67
2022-09-01T06:22:41.283Z,27.81
2022-09-01T06:25:27.801Z,27.45
2022-09-01T06:28:08.640Z,26.70
2022-09-01T06:30:56.957Z,27.95
2022-09-01T06:33:39.002Z,28.15
2022-09-01T06:36:34.842Z,28.23
2022-09-01T06:39:20.087Z,27.63
2022-09-01T06:42:08.853Z,27.68
2022-09-01T06:45:04.763Z,28.12
2022-09-01T06:47:59.347Z,28.41
2022-09-01T06:53:51.744Z,29.14
2022-09-01T06:56:42.757Z,28.94
2022-09-01T06:59:38.721Z,28.21
2022-09-01T07:06:00.835Z,29.36
2022-09-01T07:09:20.028Z,28.74
2022-09-01T07:12:37.714Z,29.71
2022-09-01T07:18:27.806Z,30.81
2022-09-01T07:21:36.195Z,30.47
2022-09-01T07:24:17.691Z,30.99
2022-09-01T07:27:25.594Z,30.99
2022-09-01T07:30:28.797Z,31.30
2022-09-01T07:36:26.826Z,30.91
2022-09-01T07:46:36.505Z,33.98
2022-09-01T07:52:10.837Z,37.92
2022-09-01T07:54:58.716Z,37.21
2022-09-01T07:57:38.926Z,35.19
2022-09-01T08:00:30.223Z,36.13
2022-09-01T08:03:21.007Z,37.00
2022-09-01T08:06:07.048Z,35.71
2022-09-01T08:08:56.990Z,36.12
2022-09-01T08:12:02.690Z,37.13
2022-09-01T08:15:41.142Z,39.23
2022-09-01T08:18:00.933Z,39.13
2022-09-01T08:20:51.678Z,38.43
2022-09-01T08:23:49.671Z,38.64
2022-09-01T08:26:43.654Z,37.60
2022-09-01T08:29:24.108Z,36.11
2022-09-01T08:32:10.661Z,36.67
2022-09-01T08:34:51.087Z,37.59
2022-09-01T08:37:37.651Z,39.26
2022-09-01T08:40:23.733Z,40.94
2022-09-01T08:43:31.636Z,41.02
2022-09-01T08:46:35.455Z,41.57
2022-09-01T08:49:42.806Z,38.36
2022-09-01T08:52:32.617Z,36.94
2022-09-01T08:55:32.210Z,36.48
2022-09-01T08:58:19.788Z,34.87
2022-09-01T09:01:42.756Z,35.65
2022-09-01T09:04:37.727Z,36.24
2022-09-01T09:07:39.611Z,37.74
2022-09-01T09:10:50.644Z,39.17
2022-09-01T09:13:38.430Z,38.68
2022-09-01T09:16:40.615Z,37.28
2022-09-01T09:19:29.338Z,36.63
2022-09-01T09:22:27.607Z,35.82
2022-09-01T09:25:19.379Z,35.59
2022-09-01T09:28:00.996Z,37.29
2022-09-01T09:30:41.088Z,36.97
2022-09-01T09:33:53.657Z,35.97
2022-09-01T09:36:36.956Z,35.98
2022-09-01T09:39:30.591Z,35.82
2022-09-01T09:42:14.213Z,33.80
2022-09-01T09:44:59.579Z,32.42
2022-09-01T09:47:49.588Z,32.11
2022-09-01T09:50:46.767Z,31.32
2022-09-01T09:53:43.706Z,31.57
2022-09-01T09:56:25.779Z,32.17
2022-09-01T09:59:12.614Z,31.78
2022-09-01T10:02:07.077Z,31.15
2022-09-01T10:04:47.592Z,30.83
2022-09-01T10:07:44.598Z,31.24
2022-09-01T10:10:45.820Z,31.09
2022-09-01T10:13:44.576Z,31.08
2022-09-01T10:16:36.721Z,31.11
2022-09-01T10:19:23.572Z,31.19
2022-09-01T10:22:03.729Z,31.70
2022-09-01T10:24:46.034Z,31.97
2022-09-01T10:27:41.758Z,31.74
2022-09-01T10:30:26.599Z,32.07
2022-09-01T10:33:18.967Z,31.40
2022-09-01T10:36:07.959Z,31.37
2022-09-01T10:39:04.606Z,31.09
2022-09-01T10:42:00.077Z,30.63
2022-09-01T10:45:04.651Z,32.34
2022-09-01T10:47:46.939Z,32.00
2022-09-01T10:50:39.607Z,33.54
2022-09-01T10:53:51.536Z,33.35
2022-09-01T10:56:52.607Z,33.07
2022-09-01T10:59:44.921Z,32.43
2022-09-01T11:02:42.086Z,33.50
2022-09-01T11:05:33.639Z,34.57
2022-09-01T11:08:29.529Z,35.04
2022-09-01T11:11:47.503Z,33.25
2022-09-01T11:14:34.531Z,31.97
2022-09-01T11:17:28.800Z,31.77
2022-09-01T11:20:42.505Z,30.41
2022-09-01T11:23:44.523Z,30.68
2022-09-01T11:26:47.584Z,30.30
2022-09-01T11:30:01.532Z,29.30
2022-09-01T11:32:51.486Z,28.56
2022-09-01T11:35:32.554Z,28.32
2022-09-01T11:38:22.582Z,27.74
2022-09-01T11:41:09.690Z,27.81
2022-09-01T11:43:56.696Z,27.81
2022-09-01T11:46:43.486Z,27.68
2022-09-01T11:50:09.717Z,27.61
2022-09-01T11:53:13.443Z,27.41
2022-09-01T11:55:57.899Z,27.30
2022-09-01T11:58:45.484Z,27.29
2022-09-01T12:01:48.455Z,27.32
2022-09-01T12:04:43.434Z,27.15
2022-09-01T12:07:35.774Z,26.63
2022-09-01T12:10:32.474Z,26.50
2022-09-01T12:13:26.470Z,26.67
2022-09-01T12:16:18.374Z,26.76
2022-09-01T12:19:07.415Z,26.83
2022-09-01T12:21:59.422Z,26.67
2022-09-01T12:24:50.439Z,26.61
2022-09-01T12:27:30.880Z,26.52
2022-09-01T12:30:17.464Z,26.52
2022-09-01T12:36:24.426Z,26.42
2022-09-01T12:39:31.415Z,26.70
2022-09-01T12:42:40.860Z,26.63
2022-09-01T12:45:52.428Z,26.78
2022-09-01T12:48:45.559Z,26.89
2022-09-01T12:51:32.537Z,27.17
2022-09-01T12:54:12.662Z,27.38
2022-09-01T12:56:52.944Z,27.48
2022-09-01T12:59:40.410Z,27.41
2022-09-01T13:05:51.377Z,27.03
2022-09-01T13:08:41.426Z,26.82
2022-09-01T13:11:26.024Z,26.85
2022-09-01T13:14:12.361Z,26.52
2022-09-01T13:16:52.528Z,26.54
2022-09-01T13:19:39.357Z,26.63
2022-09-01T13:22:19.606Z,26.58
2022-09-01T13:25:07.377Z,26.54
2022-09-01T13:27:47.616Z,26.45
2022-09-01T13:30:35.368Z,26.24
2022-09-01T13:33:23.155Z,26.18
2022-09-01T13:39:18.668Z,25.77
2022-09-01T13:42:05.334Z,25.60
2022-09-01T13:44:55.179Z,25.59
2022-09-01T13:53:52.366Z,25.59
2022-09-01T13:56:32.478Z,25.66
2022-09-01T13:59:19.382Z,25.64
2022-09-01T14:01:59.720Z,25.57
2022-09-01T14:04:46.358Z,25.34
2022-09-01T14:07:33.337Z,25.37
2022-09-01T14:10:21.334Z,25.32
2022-09-01T14:13:09.312Z,25.24
2022-09-01T14:15:50.161Z,25.15
2022-09-01T14:18:43.393Z,25.15
2022-09-01T14:21:30.326Z,25.31
2022-09-01T14:24:10.416Z,25.16
2022-09-01T14:26:57.315Z,25.13
2022-09-01T14:32:25.310Z,25.50
2022-09-01T14:35:14.388Z,25.65
2022-09-01T14:38:02.345Z,25.80
2022-09-01T14:40:50.380Z,25.98
2022-09-01T14:43:39.285Z,26.40
2022-09-01T14:46:20.469Z,26.46
2022-09-01T14:49:08.262Z,26.46
2022-09-01T14:52:11.352Z,26.30
2022-09-01T14:54:51.814Z,25.98
2022-09-01T14:57:39.296Z,26.03
2022-09-01T15:00:20.296Z,26.11
2022-09-01T15:03:09.513Z,26.03
2022-09-01T15:05:51.035Z,25.82
2022-09-01T15:08:38.262Z,25.80
2022-09-01T15:28:05.287Z,24.68
2022-09-01T15:30:46.630Z,24.76
2022-09-01T15:33:34.283Z,24.83
2022-09-01T15:36:20.779Z,24.79
2022-09-01T15:39:07.249Z,24.74
2022-09-01T15:41:47.653Z,24.77
2022-09-01T15:44:34.310Z,24.81
2022-09-01T15:47:21.326Z,24.75
2022-09-01T15:50:08.306Z,24.79
2022-09-01T15:52:59.671Z,24.78
2022-09-01T15:55:58.244Z,24.77
2022-09-01T15:58:57.531Z,24.77
2022-09-01T16:01:49.284Z,24.74
2022-09-01T16:04:29.697Z,24.64
2022-09-01T16:07:17.266Z,24.58
2022-09-01T16:10:04.260Z,24.50
2022-09-01T16:12:51.780Z,24.50
2022-09-01T16:15:39.284Z,24.46
2022-09-01T16:18:25.378Z,24.39
2022-09-01T16:21:21.259Z,24.31
2022-09-01T16:24:08.213Z,24.16
2022-09-01T16:27:03.215Z,24.16
2022-09-01T16:30:16.261Z,24.08
2022-09-01T16:32:56.310Z,24.07
2022-09-01T16:36:14.234Z,24.02
2022-09-01T16:38:58.412Z,24.02
2022-09-01T16:41:52.226Z,24.00
2022-09-01T16:45:07.232Z,23.92
2022-09-01T16:48:10.368Z,23.95
2022-09-01T16:50:57.211Z,23.92
2022-09-01T16:54:07.224Z,23.85
2022-09-01T16:57:01.210Z,23.82
2022-09-01T16:59:59.069Z,23.82
2022-09-01T17:03:04.197Z,23.86
2022-09-01T17:06:18.465Z,23.85
2022-09-01T17:09:14.240Z,23.81
2022-09-01T17:12:20.058Z,23.81
2022-09-01T17:15:15.191Z,23.78
2022-09-01T17:18:22.131Z,23.75
2022-09-01T17:21:20.179Z,23.75
2022-09-01T17:24:06.150Z,23.72
2022-09-01T17:26:58.181Z,23.70
2022-09-01T17:29:59.147Z,23.73
2022-09-01T17:33:02.154Z,23.68
2022-09-01T17:36:00.351Z,23.73
2022-09-01T17:39:00.182Z,23.72
2022-09-01T17:41:52.843Z,23.66
2022-09-01T17:44:52.144Z,23.56
2022-09-01T17:47:48.315Z,23.56
2022-09-01T17:50:54.931Z,23.58
2022-09-01T17:54:05.144Z,23.53
2022-09-01T17:57:33.138Z,23.55
2022-09-01T18:00:34.870Z,23.47
2022-09-01T18:03:41.098Z,23.42
2022-09-01T18:06:31.170Z,23.42
2022-09-01T18:09:22.364Z,23.34
2022-09-01T18:12:11.117Z,23.35
2022-09-01T18:15:18.127Z,23.30
2022-09-01T18:18:11.195Z,23.28
2022-09-01T18:21:05.129Z,23.26
2022-09-01T18:23:48.555Z,23.26
2022-09-01T18:26:42.274Z,23.23
2022-09-01T18:29:29.716Z,23.22
2022-09-01T18:32:24.287Z,23.24
2022-09-01T18:35:08.620Z,23.19
2022-09-01T18:38:19.209Z,23.19
2022-09-01T18:41:12.341Z,23.19
2022-09-01T18:44:17.767Z,23.21
2022-09-01T18:47:09.342Z,23.24
2022-09-01T18:49:49.682Z,23.24
2022-09-01T18:53:09.316Z,23.27
2022-09-01T18:56:37.554Z,23.28
2022-09-01T18:59:47.326Z,23.31
2022-09-01T19:03:06.604Z,23.23
2022-09-01T19:06:05.306Z,23.22
2022-09-01T19:09:22.328Z,23.13
2022-09-01T19:12:19.307Z,23.16
2022-09-01T19:15:26.026Z,23.11
2022-09-01T19:18:31.299Z,23.08
2022-09-01T19:21:33.264Z,23.16
2022-09-01T19:24:30.285Z,23.16
2022-09-01T19:27:28.227Z,23.10
2022-09-01T19:30:16.180Z,22.97
2022-09-01T19:33:04.081Z,22.98
2022-09-01T19:35:47.456Z,22.95
2022-09-01T19:38:38.087Z,22.91
2022-09-01T19:41:35.033Z,22.94
2022-09-01T19:44:28.018Z,22.93
2022-09-01T19:47:23.046Z,22.92
2022-09-01T19:50:21.010Z,22.88
2022-09-01T19:53:38.887Z,22.85
2022-09-01T19:56:39.846Z,22.79
2022-09-01T19:59:42.947Z,22.81
2022-09-01T20:02:43.045Z,22.79
2022-09-01T20:05:32.187Z,22.78
2022-09-01T20:08:31.021Z,22.76
2022-09-01T20:11:35.243Z,22.76
2022-09-01T20:14:37.117Z,22.73
2022-09-01T20:17:27.530Z,22.71
2022-09-01T20:20:22.004Z,22.70
2022-09-01T20:23:31.031Z,22.70
2022-09-01T20:26:22.967Z,22.67
2022-09-01T20:29:23.010Z,22.73
2022-09-01T20:32:06.098Z,22.68
2022-09-01T20:34:59.997Z,22.66
2022-09-01T20:37:54.084Z,22.68
2022-09-01T20:40:47.023Z,22.63
2022-09-01T20:43:46.000Z,22.64
2022-09-01T20:46:26.854Z,22.66
2022-09-01T20:49:13.987Z,22.65
2022-09-01T20:52:00.272Z,22.60
2022-09-01T20:55:15.947Z,22.63
2022-09-01T20:58:20.359Z,22.58
2022-09-01T21:01:28.953Z,22.57
2022-09-01T21:04:23.725Z,22.55
2022-09-01T21:07:13.928Z,22.56
2022-09-01T21:10:09.937Z,22.55
2022-09-01T21:13:02.932Z,22.45
2022-09-01T21:16:06.931Z,22.45
2022-09-01T21:19:20.925Z,22.44
2022-09-01T21:22:27.905Z,22.43
2022-09-01T21:25:15.034Z,22.40
2022-09-01T21:28:05.933Z,22.46
2022-09-01T21:30:46.096Z,22.46
2022-09-01T21:33:38.894Z,22.46
2022-09-01T21:36:19.030Z,22.47
2022-09-01T21:39:05.892Z,22.48
2022-09-01T21:41:46.090Z,22.53
2022-09-01T21:44:32.878Z,22.54
2022-09-01T21:47:13.019Z,22.49
2022-09-01T21:49:59.906Z,22.52
2022-09-01T21:52:40.049Z,22.59
2022-09-01T21:55:27.881Z,22.61
2022-09-01T21:58:14.899Z,22.57
2022-09-01T22:01:02.063Z,22.58
2022-09-01T22:03:41.880Z,22.55
2022-09-01T22:06:29.905Z,22.51
2022-09-01T22:09:20.887Z,22.50
2022-09-01T22:12:07.889Z,22.52
2022-09-01T22:14:47.993Z,22.51
2022-09-01T22:17:34.842Z,22.52
2022-09-01T22:20:17.180Z,22.55
2022-09-01T22:23:04.846Z,22.51
2022-09-01T22:25:56.830Z,22.50
2022-09-01T22:28:43.870Z,22.49
2022-09-01T22:31:26.980Z,22.50
2022-09-01T22:34:14.879Z,22.50
2022-09-01T22:37:02.870Z,22.48
2022-09-01T22:39:49.886Z,22.49
2022-09-01T22:42:29.930Z,22.54
2022-09-01T22:45:19.834Z,22.50
2022-09-01T22:48:06.841Z,22.53
2022-09-01T22:50:54.835Z,22.53
2022-09-01T22:53:41.866Z,22.51
2022-09-01T22:56:28.036Z,22.51
2022-09-01T22:59:16.850Z,22.52
2022-09-01T23:02:04.010Z,22.50
2022-09-01T23:04:44.822Z,22.50
2022-09-01T23:07:25.346Z,22.43
2022-09-01T23:10:12.831Z,22.33
2022-09-01T23:12:53.377Z,22.32
2022-09-01T23:15:39.820Z,22.30
2022-09-01T23:18:20.232Z,22.31
2022-09-01T23:21:08.884Z,22.31
2022-09-01T23:23:55.154Z,22.31
2022-09-01T23:26:46.773Z,22.38
2022-09-01T23:29:27.245Z,22.37
2022-09-01T23:32:15.847Z,22.37
2022-09-01T23:34:56.889Z,22.38
2022-09-01T23:37:43.778Z,22.40
2022-09-01T23:40:30.820Z,22.39
2022-09-01T23:43:17.805Z,22.40
2022-09-01T23:45:58.279Z,22.42
2022-09-01T23:48:44.773Z,22.46
2022-09-01T23:51:25.772Z,22.46
2022-09-01T23:54:12.787Z,22.47
2022-09-01T23:56:59.786Z,22.51
2022-09-01T23:59:40.856Z,22.50
